Time;durP1;ratioP1;P1;durP2;ratioP2;P2;SDS_P1;SDS_P2;PMS_P1;PMS_P2;Temp;Humidity;BMP_temperature;BMP_pressure;BME280_temperature;BME280_humidity;BME280_pressure;Samples;Min_cycle;Max_cycle;Signal;HPM_P1;HPM_P2
2020/09/30 00:00:13;;;;;;;7;5.3;;;;;;;10.95;100;95440.35;;;;
2020/09/30 00:01:14;;;;;;;5.65;5;;;;;;;11;100;95435.47;;;;
2020/09/30 00:02:14;;;;;;;5.65;5;;;;;;;11;100;95435.47;;;;
2020/09/30 00:03:15;;;;;;;5.65;5;;;;;;;11;100;95435.47;;;;
2020/09/30 00:04:15;;;;;;;5.65;5;;;;;;;11;100;95435.47;;;;
2020/09/30 00:05:16;;;;;;;5.65;5;;;;;;;11;100;95435.47;;;;
2020/09/30 00:06:16;;;;;;;5.65;5;;;;;;;11;100;95435.47;;;;
2020/09/30 00:07:18;;;;;;;5.65;5;;;;;;;11;100;95435.47;;;;
2020/09/30 00:08:18;;;;;;;5.65;5;;;;;;;11;100;95435.47;;;;
2020/09/30 00:09:27;;;;;;;5.65;5;;;;;;;11;100;95435.47;;;;
2020/09/30 00:10:28;;;;;;;5.65;5;;;;;;;11;100;95435.47;;;;
2020/09/30 00:11:28;;;;;;;5.65;5;;;;;;;11;100;95435.47;;;;
2020/09/30 00:12:29;;;;;;;6.8;4.85;;;;;;;11;100;95431.42;;;;
2020/09/30 00:13:29;;;;;;;6.8;4.85;;;;;;;11;100;95431.42;;;;
2020/09/30 00:14:30;;;;;;;6.8;4.85;;;;;;;11;100;95431.42;;;;
2020/09/30 00:15:30;;;;;;;6.8;4.85;;;;;;;11;100;95431.42;;;;
2020/09/30 00:16:31;;;;;;;6.8;4.85;;;;;;;11;100;95431.42;;;;
2020/09/30 00:17:31;;;;;;;6.8;4.85;;;;;;;11;100;95431.42;;;;
2020/09/30 00:18:32;;;;;;;6.8;4.85;;;;;;;11;100;95431.42;;;;
2020/09/30 00:19:32;;;;;;;6.8;4.85;;;;;;;11;100;95431.42;;;;
2020/09/30 00:20:33;;;;;;;6.8;4.85;;;;;;;11;100;95431.42;;;;
2020/09/30 00:21:33;;;;;;;6.8;4.85;;;;;;;11;100;95431.42;;;;
2020/09/30 00:22:34;;;;;;;5.15;4.5;;;;;;;11.04;100;95431.22;;;;
2020/09/30 00:23:34;;;;;;;5.15;4.5;;;;;;;11.04;100;95431.22;;;;
2020/09/30 00:24:35;;;;;;;5.15;4.5;;;;;;;11.04;100;95431.22;;;;
2020/09/30 00:25:35;;;;;;;5.15;4.5;;;;;;;11.04;100;95431.22;;;;
2020/09/30 00:26:36;;;;;;;5.15;4.5;;;;;;;11.04;100;95431.22;;;;
2020/09/30 00:27:36;;;;;;;5.15;4.5;;;;;;;11.04;100;95431.22;;;;
2020/09/30 00:28:37;;;;;;;5.15;4.5;;;;;;;11.04;100;95431.22;;;;
2020/09/30 00:29:37;;;;;;;5.15;4.5;;;;;;;11.04;100;95431.22;;;;
2020/09/30 00:30:38;;;;;;;5.15;4.5;;;;;;;11.04;100;95431.22;;;;
2020/09/30 00:31:38;;;;;;;5.15;4.5;;;;;;;11.04;100;95431.22;;;;
2020/09/30 00:32:39;;;;;;;5.15;4.5;;;;;;;11.04;100;95431.22;;;;
2020/09/30 00:33:39;;;;;;;6.599999;4.900001;;;;;;;11.03;100;95433.65;;;;
2020/09/30 00:34:40;;;;;;;6.599999;4.900001;;;;;;;11.03;100;95433.65;;;;
2020/09/30 00:35:40;;;;;;;6.599999;4.900001;;;;;;;11.03;100;95433.65;;;;
2020/09/30 00:36:41;;;;;;;6.599999;4.900001;;;;;;;11.03;100;95433.65;;;;
2020/09/30 00:37:41;;;;;;;6.599999;4.900001;;;;;;;11.03;100;95433.65;;;;
2020/09/30 00:38:42;;;;;;;6.599999;4.900001;;;;;;;11.03;100;95433.65;;;;
2020/09/30 00:39:42;;;;;;;6.599999;4.900001;;;;;;;11.03;100;95433.65;;;;
2020/09/30 00:40:43;;;;;;;6.599999;4.900001;;;;;;;11.03;100;95433.65;;;;
2020/09/30 00:41:49;;;;;;;6.599999;4.900001;;;;;;;11.03;100;95433.65;;;;
2020/09/30 00:42:50;;;;;;;6.599999;4.900001;;;;;;;11.03;100;95433.65;;;;
2020/09/30 00:43:50;;;;;;;6.599999;4.900001;;;;;;;11.03;100;95433.65;;;;
2020/09/30 00:44:51;;;;;;;7.3;4.75;;;;;;;11.07;100;95433.58;;;;
2020/09/30 00:45:51;;;;;;;7.3;4.75;;;;;;;11.07;100;95433.58;;;;
2020/09/30 00:46:52;;;;;;;7.3;4.75;;;;;;;11.07;100;95433.58;;;;
2020/09/30 00:47:52;;;;;;;7.3;4.75;;;;;;;11.07;100;95433.58;;;;
2020/09/30 00:48:53;;;;;;;7.3;4.75;;;;;;;11.07;100;95433.58;;;;
2020/09/30 00:49:53;;;;;;;7.3;4.75;;;;;;;11.07;100;95433.58;;;;
2020/09/30 00:50:54;;;;;;;7.3;4.75;;;;;;;11.07;100;95433.58;;;;
2020/09/30 00:51:56;;;;;;;7.3;4.75;;;;;;;11.07;100;95433.58;;;;
2020/09/30 00:52:56;;;;;;;7.3;4.75;;;;;;;11.07;100;95433.58;;;;
2020/09/30 00:53:57;;;;;;;7.3;4.75;;;;;;;11.07;100;95433.58;;;;
2020/09/30 00:54:58;;;;;;;5.7;4.8;;;;;;;11.04;100;95422.74;;;;
2020/09/30 00:55:58;;;;;;;5.7;4.8;;;;;;;11.04;100;95422.74;;;;
2020/09/30 00:56:59;;;;;;;5.7;4.8;;;;;;;11.04;100;95422.74;;;;
2020/09/30 00:58:00;;;;;;;5.7;4.8;;;;;;;11.04;100;95422.74;;;;
2020/09/30 00:59:00;;;;;;;5.7;4.8;;;;;;;11.04;100;95422.74;;;;
2020/09/30 01:00:01;;;;;;;5.7;4.8;;;;;;;11.04;100;95422.74;;;;
2020/09/30 01:01:02;;;;;;;5.7;4.8;;;;;;;11.04;100;95422.74;;;;
2020/09/30 01:02:03;;;;;;;5.7;4.8;;;;;;;11.04;100;95422.74;;;;
2020/09/30 01:03:03;;;;;;;5.7;4.8;;;;;;;11.04;100;95422.74;;;;
2020/09/30 01:04:04;;;;;;;5.7;4.8;;;;;;;11.04;100;95422.74;;;;
2020/09/30 01:05:04;;;;;;;5.7;4.8;;;;;;;11.04;100;95422.74;;;;
2020/09/30 01:06:06;;;;;;;7.65;5.25;;;;;;;11.07;100;95430.36;;;;
2020/09/30 01:07:06;;;;;;;7.65;5.25;;;;;;;11.07;100;95430.36;;;;
2020/09/30 01:08:07;;;;;;;7.65;5.25;;;;;;;11.07;100;95430.36;;;;
2020/09/30 01:09:08;;;;;;;7.65;5.25;;;;;;;11.07;100;95430.36;;;;
2020/09/30 01:10:08;;;;;;;7.65;5.25;;;;;;;11.07;100;95430.36;;;;
2020/09/30 01:11:09;;;;;;;7.65;5.25;;;;;;;11.07;100;95430.36;;;;
2020/09/30 01:12:09;;;;;;;7.65;5.25;;;;;;;11.07;100;95430.36;;;;
2020/09/30 01:13:10;;;;;;;7.65;5.25;;;;;;;11.07;100;95430.36;;;;
2020/09/30 01:14:10;;;;;;;7.65;5.25;;;;;;;11.07;100;95430.36;;;;
2020/09/30 01:15:11;;;;;;;7.65;5.25;;;;;;;11.07;100;95430.36;;;;
2020/09/30 01:16:11;;;;;;;6.95;5.450001;;;;;;;11.03;100;95425.54;;;;
2020/09/30 01:17:12;;;;;;;6.95;5.450001;;;;;;;11.03;100;95425.54;;;;
2020/09/30 01:18:12;;;;;;;6.95;5.450001;;;;;;;11.03;100;95425.54;;;;
2020/09/30 01:19:13;;;;;;;6.95;5.450001;;;;;;;11.03;100;95425.54;;;;
2020/09/30 01:20:14;;;;;;;6.95;5.450001;;;;;;;11.03;100;95425.54;;;;
2020/09/30 01:21:14;;;;;;;6.95;5.450001;;;;;;;11.03;100;95425.54;;;;
2020/09/30 01:22:20;;;;;;;6.95;5.450001;;;;;;;11.03;100;95425.54;;;;
2020/09/30 01:23:21;;;;;;;6.95;5.450001;;;;;;;11.03;100;95425.54;;;;
2020/09/30 01:24:22;;;;;;;6.95;5.450001;;;;;;;11.03;100;95425.54;;;;
2020/09/30 01:25:22;;;;;;;6.95;5.450001;;;;;;;11.03;100;95425.54;;;;
2020/09/30 01:26:23;;;;;;;6.95;5.450001;;;;;;;11.03;100;95425.54;;;;
2020/09/30 01:27:23;;;;;;;7.55;5.299999;;;;;;;11.05;100;95427.59;;;;
2020/09/30 01:28:24;;;;;;;7.55;5.299999;;;;;;;11.05;100;95427.59;;;;
2020/09/30 01:29:24;;;;;;;7.55;5.299999;;;;;;;11.05;100;95427.59;;;;
2020/09/30 01:30:26;;;;;;;7.55;5.299999;;;;;;;11.05;100;95427.59;;;;
2020/09/30 01:31:26;;;;;;;7.55;5.299999;;;;;;;11.05;100;95427.59;;;;
2020/09/30 01:32:27;;;;;;;7.55;5.299999;;;;;;;11.05;100;95427.59;;;;
2020/09/30 01:33:27;;;;;;;7.55;5.299999;;;;;;;11.05;100;95427.59;;;;
2020/09/30 01:34:28;;;;;;;7.55;5.299999;;;;;;;11.05;100;95427.59;;;;
2020/09/30 01:35:28;;;;;;;7.55;5.299999;;;;;;;11.05;100;95427.59;;;;
2020/09/30 01:36:28;;;;;;;7.55;5.299999;;;;;;;11.05;100;95427.59;;;;
2020/09/30 01:37:29;;;;;;;6.8;4.85;;;;;;;11;100;95426.12;;;;
2020/09/30 01:38:30;;;;;;;6.8;4.85;;;;;;;11;100;95426.12;;;;
2020/09/30 01:39:31;;;;;;;6.8;4.85;;;;;;;11;100;95426.12;;;;
2020/09/30 01:40:32;;;;;;;6.8;4.85;;;;;;;11;100;95426.12;;;;
2020/09/30 01:41:32;;;;;;;6.8;4.85;;;;;;;11;100;95426.12;;;;
2020/09/30 01:42:32;;;;;;;6.8;4.85;;;;;;;11;100;95426.12;;;;
2020/09/30 01:43:33;;;;;;;6.8;4.85;;;;;;;11;100;95426.12;;;;
2020/09/30 01:44:34;;;;;;;6.8;4.85;;;;;;;11;100;95426.12;;;;
2020/09/30 01:45:34;;;;;;;6.8;4.85;;;;;;;11;100;95426.12;;;;
2020/09/30 01:46:35;;;;;;;6.8;4.85;;;;;;;11;100;95426.12;;;;
2020/09/30 01:47:35;;;;;;;6.8;4.85;;;;;;;11;100;95426.12;;;;
2020/09/30 01:48:36;;;;;;;6.849999;5.2;;;;;;;11.03;100;95416.61;;;;
2020/09/30 01:49:36;;;;;;;6.849999;5.2;;;;;;;11.03;100;95416.61;;;;
2020/09/30 01:50:37;;;;;;;6.849999;5.2;;;;;;;11.03;100;95416.61;;;;
2020/09/30 01:51:39;;;;;;;6.849999;5.2;;;;;;;11.03;100;95416.61;;;;
2020/09/30 01:52:39;;;;;;;6.849999;5.2;;;;;;;11.03;100;95416.61;;;;
2020/09/30 01:53:40;;;;;;;6.849999;5.2;;;;;;;11.03;100;95416.61;;;;
2020/09/30 01:54:40;;;;;;;6.849999;5.2;;;;;;;11.03;100;95416.61;;;;
2020/09/30 01:55:41;;;;;;;6.849999;5.2;;;;;;;11.03;100;95416.61;;;;
2020/09/30 01:56:41;;;;;;;6.849999;5.2;;;;;;;11.03;100;95416.61;;;;
2020/09/30 01:57:42;;;;;;;6.849999;5.2;;;;;;;11.03;100;95416.61;;;;
2020/09/30 01:58:42;;;;;;;6.35;4.95;;;;;;;10.99;100;95402.74;;;;
2020/09/30 01:59:43;;;;;;;6.35;4.95;;;;;;;10.99;100;95402.74;;;;
2020/09/30 02:00:43;;;;;;;6.35;4.95;;;;;;;10.99;100;95402.74;;;;
2020/09/30 02:01:44;;;;;;;6.35;4.95;;;;;;;10.99;100;95402.74;;;;
2020/09/30 02:02:44;;;;;;;6.35;4.95;;;;;;;10.99;100;95402.74;;;;
2020/09/30 02:03:45;;;;;;;6.35;4.95;;;;;;;10.99;100;95402.74;;;;
2020/09/30 02:04:45;;;;;;;6.35;4.95;;;;;;;10.99;100;95402.74;;;;
2020/09/30 02:05:46;;;;;;;6.35;4.95;;;;;;;10.99;100;95402.74;;;;
2020/09/30 02:06:46;;;;;;;6.35;4.95;;;;;;;10.99;100;95402.74;;;;
2020/09/30 02:07:47;;;;;;;6.35;4.95;;;;;;;10.99;100;95402.74;;;;
2020/09/30 02:08:47;;;;;;;6.35;4.95;;;;;;;10.99;100;95402.74;;;;
2020/09/30 02:09:48;;;;;;;6.350001;4.950001;;;;;;;11.01;100;95395.37;;;;
2020/09/30 02:10:48;;;;;;;6.350001;4.950001;;;;;;;11.01;100;95395.37;;;;
2020/09/30 02:11:49;;;;;;;6.350001;4.950001;;;;;;;11.01;100;95395.37;;;;
2020/09/30 02:12:49;;;;;;;6.350001;4.950001;;;;;;;11.01;100;95395.37;;;;
2020/09/30 02:13:49;;;;;;;6.350001;4.950001;;;;;;;11.01;100;95395.37;;;;
2020/09/30 02:14:50;;;;;;;6.350001;4.950001;;;;;;;11.01;100;95395.37;;;;
2020/09/30 02:15:50;;;;;;;6.350001;4.950001;;;;;;;11.01;100;95395.37;;;;
2020/09/30 02:16:51;;;;;;;6.350001;4.950001;;;;;;;11.01;100;95395.37;;;;
2020/09/30 02:17:51;;;;;;;6.350001;4.950001;;;;;;;11.01;100;95395.37;;;;
2020/09/30 02:18:52;;;;;;;6.350001;4.950001;;;;;;;11.01;100;95395.37;;;;
2020/09/30 02:19:52;;;;;;;6.350001;4.950001;;;;;;;11.01;100;95395.37;;;;
2020/09/30 02:20:53;;;;;;;6.55;4.95;;;;;;;10.96;100;95395.12;;;;
2020/09/30 02:21:53;;;;;;;6.55;4.95;;;;;;;10.96;100;95395.12;;;;
2020/09/30 02:22:54;;;;;;;6.55;4.95;;;;;;;10.96;100;95395.12;;;;
2020/09/30 02:23:54;;;;;;;6.55;4.95;;;;;;;10.96;100;95395.12;;;;
2020/09/30 02:24:55;;;;;;;6.55;4.95;;;;;;;10.96;100;95395.12;;;;
2020/09/30 02:25:55;;;;;;;6.55;4.95;;;;;;;10.96;100;95395.12;;;;
2020/09/30 02:26:56;;;;;;;6.55;4.95;;;;;;;10.96;100;95395.12;;;;
2020/09/30 02:27:56;;;;;;;6.55;4.95;;;;;;;10.96;100;95395.12;;;;
2020/09/30 02:28:57;;;;;;;6.55;4.95;;;;;;;10.96;100;95395.12;;;;
2020/09/30 02:29:57;;;;;;;6.55;4.95;;;;;;;10.96;100;95395.12;;;;
2020/09/30 02:30:58;;;;;;;5.65;4.95;;;;;;;10.98;100;95375.45;;;;
2020/09/30 02:31:58;;;;;;;5.65;4.95;;;;;;;10.98;100;95375.45;;;;
2020/09/30 02:32:59;;;;;;;5.65;4.95;;;;;;;10.98;100;95375.45;;;;
2020/09/30 02:33:59;;;;;;;5.65;4.95;;;;;;;10.98;100;95375.45;;;;
2020/09/30 02:35:00;;;;;;;5.65;4.95;;;;;;;10.98;100;95375.45;;;;
2020/09/30 02:36:00;;;;;;;5.65;4.95;;;;;;;10.98;100;95375.45;;;;
2020/09/30 02:37:01;;;;;;;5.65;4.95;;;;;;;10.98;100;95375.45;;;;
2020/09/30 02:38:02;;;;;;;5.65;4.95;;;;;;;10.98;100;95375.45;;;;
2020/09/30 02:39:02;;;;;;;5.65;4.95;;;;;;;10.98;100;95375.45;;;;
2020/09/30 02:40:03;;;;;;;5.65;4.95;;;;;;;10.98;100;95375.45;;;;
2020/09/30 02:41:03;;;;;;;5.65;4.95;;;;;;;10.98;100;95375.45;;;;
2020/09/30 02:42:04;;;;;;;5.6;5;;;;;;;10.95;100;95362.53;;;;
2020/09/30 02:43:04;;;;;;;5.6;5;;;;;;;10.95;100;95362.53;;;;
2020/09/30 02:44:05;;;;;;;5.6;5;;;;;;;10.95;100;95362.53;;;;
2020/09/30 02:45:05;;;;;;;5.6;5;;;;;;;10.95;100;95362.53;;;;
2020/09/30 02:46:06;;;;;;;5.6;5;;;;;;;10.95;100;95362.53;;;;
2020/09/30 02:47:07;;;;;;;5.6;5;;;;;;;10.95;100;95362.53;;;;
2020/09/30 02:48:07;;;;;;;5.6;5;;;;;;;10.95;100;95362.53;;;;
2020/09/30 02:49:08;;;;;;;5.6;5;;;;;;;10.95;100;95362.53;;;;
2020/09/30 02:50:08;;;;;;;5.6;5;;;;;;;10.95;100;95362.53;;;;
2020/09/30 02:51:09;;;;;;;5.6;5;;;;;;;10.95;100;95362.53;;;;
2020/09/30 02:52:09;;;;;;;6.250001;5.149999;;;;;;;10.97;100;95364.33;;;;
2020/09/30 02:53:10;;;;;;;6.250001;5.149999;;;;;;;10.97;100;95364.33;;;;
2020/09/30 02:54:10;;;;;;;6.250001;5.149999;;;;;;;10.97;100;95364.33;;;;
2020/09/30 02:55:11;;;;;;;6.250001;5.149999;;;;;;;10.97;100;95364.33;;;;
2020/09/30 02:56:11;;;;;;;6.250001;5.149999;;;;;;;10.97;100;95364.33;;;;
2020/09/30 02:57:12;;;;;;;6.250001;5.149999;;;;;;;10.97;100;95364.33;;;;
2020/09/30 02:58:12;;;;;;;6.250001;5.149999;;;;;;;10.97;100;95364.33;;;;
2020/09/30 02:59:13;;;;;;;6.250001;5.149999;;;;;;;10.97;100;95364.33;;;;
2020/09/30 03:00:13;;;;;;;6.250001;5.149999;;;;;;;10.97;100;95364.33;;;;
2020/09/30 03:01:14;;;;;;;6.250001;5.149999;;;;;;;10.97;100;95364.33;;;;
2020/09/30 03:02:14;;;;;;;6.250001;5.149999;;;;;;;10.97;100;95364.33;;;;
2020/09/30 03:03:15;;;;;;;5.8;5.199999;;;;;;;10.95;100;95358.48;;;;
2020/09/30 03:04:16;;;;;;;5.8;5.199999;;;;;;;10.95;100;95358.48;;;;
2020/09/30 03:05:16;;;;;;;5.8;5.199999;;;;;;;10.95;100;95358.48;;;;
2020/09/30 03:06:16;;;;;;;5.8;5.199999;;;;;;;10.95;100;95358.48;;;;
2020/09/30 03:07:17;;;;;;;5.8;5.199999;;;;;;;10.95;100;95358.48;;;;
2020/09/30 03:08:18;;;;;;;5.8;5.199999;;;;;;;10.95;100;95358.48;;;;
2020/09/30 03:09:18;;;;;;;5.8;5.199999;;;;;;;10.95;100;95358.48;;;;
2020/09/30 03:10:18;;;;;;;5.8;5.199999;;;;;;;10.95;100;95358.48;;;;
2020/09/30 03:11:19;;;;;;;5.8;5.199999;;;;;;;10.95;100;95358.48;;;;
2020/09/30 03:12:19;;;;;;;5.8;5.199999;;;;;;;10.95;100;95358.48;;;;
2020/09/30 03:13:20;;;;;;;6.95;5.25;;;;;;;10.98;100;95352.48;;;;
2020/09/30 03:14:20;;;;;;;6.95;5.25;;;;;;;10.98;100;95352.48;;;;
2020/09/30 03:15:21;;;;;;;6.95;5.25;;;;;;;10.98;100;95352.48;;;;
2020/09/30 03:16:21;;;;;;;6.95;5.25;;;;;;;10.98;100;95352.48;;;;
2020/09/30 03:17:22;;;;;;;6.95;5.25;;;;;;;10.98;100;95352.48;;;;
2020/09/30 03:18:23;;;;;;;6.95;5.25;;;;;;;10.98;100;95352.48;;;;
2020/09/30 03:19:23;;;;;;;6.95;5.25;;;;;;;10.98;100;95352.48;;;;
2020/09/30 03:20:24;;;;;;;6.95;5.25;;;;;;;10.98;100;95352.48;;;;
2020/09/30 03:21:24;;;;;;;6.95;5.25;;;;;;;10.98;100;95352.48;;;;
2020/09/30 03:22:25;;;;;;;6.95;5.25;;;;;;;10.98;100;95352.48;;;;
2020/09/30 03:23:25;;;;;;;6.95;5.25;;;;;;;10.98;100;95352.48;;;;
2020/09/30 03:24:26;;;;;;;6.6;5.15;;;;;;;10.96;100;95357.4;;;;
2020/09/30 03:25:26;;;;;;;6.6;5.15;;;;;;;10.96;100;95357.4;;;;
2020/09/30 03:26:27;;;;;;;6.6;5.15;;;;;;;10.96;100;95357.4;;;;
2020/09/30 03:27:27;;;;;;;6.6;5.15;;;;;;;10.96;100;95357.4;;;;
2020/09/30 03:28:28;;;;;;;6.6;5.15;;;;;;;10.96;100;95357.4;;;;
2020/09/30 03:29:28;;;;;;;6.6;5.15;;;;;;;10.96;100;95357.4;;;;
2020/09/30 03:30:29;;;;;;;6.6;5.15;;;;;;;10.96;100;95357.4;;;;
2020/09/30 03:31:30;;;;;;;6.6;5.15;;;;;;;10.96;100;95357.4;;;;
2020/09/30 03:32:31;;;;;;;6.6;5.15;;;;;;;10.96;100;95357.4;;;;
2020/09/30 03:33:32;;;;;;;6.6;5.15;;;;;;;10.96;100;95357.4;;;;
2020/09/30 03:34:32;;;;;;;6.6;5.15;;;;;;;10.96;100;95357.4;;;;
2020/09/30 03:35:33;;;;;;;6.349999;5.4;;;;;;;10.97;100;95348.13;;;;
2020/09/30 03:36:33;;;;;;;6.349999;5.4;;;;;;;10.97;100;95348.13;;;;
2020/09/30 03:37:34;;;;;;;6.349999;5.4;;;;;;;10.97;100;95348.13;;;;
2020/09/30 03:38:36;;;;;;;6.349999;5.4;;;;;;;10.97;100;95348.13;;;;
2020/09/30 03:39:36;;;;;;;6.349999;5.4;;;;;;;10.97;100;95348.13;;;;
2020/09/30 03:40:37;;;;;;;6.349999;5.4;;;;;;;10.97;100;95348.13;;;;
2020/09/30 03:41:38;;;;;;;6.349999;5.4;;;;;;;10.97;100;95348.13;;;;
2020/09/30 03:42:39;;;;;;;6.349999;5.4;;;;;;;10.97;100;95348.13;;;;
2020/09/30 03:43:39;;;;;;;6.349999;5.4;;;;;;;10.97;100;95348.13;;;;
2020/09/30 03:44:40;;;;;;;6.349999;5.4;;;;;;;10.97;100;95348.13;;;;
2020/09/30 03:45:40;;;;;;;5.95;5.199999;;;;;;;10.93;100;95341.57;;;;
2020/09/30 03:46:41;;;;;;;5.95;5.199999;;;;;;;10.93;100;95341.57;;;;
2020/09/30 03:47:42;;;;;;;5.95;5.199999;;;;;;;10.93;100;95341.57;;;;
2020/09/30 03:48:42;;;;;;;5.95;5.199999;;;;;;;10.93;100;95341.57;;;;
2020/09/30 03:49:43;;;;;;;5.95;5.199999;;;;;;;10.93;100;95341.57;;;;
2020/09/30 03:50:44;;;;;;;5.95;5.199999;;;;;;;10.93;100;95341.57;;;;
2020/09/30 03:51:44;;;;;;;5.95;5.199999;;;;;;;10.93;100;95341.57;;;;
2020/09/30 03:52:52;;;;;;;5.95;5.199999;;;;;;;10.93;100;95341.57;;;;
2020/09/30 03:53:53;;;;;;;5.95;5.199999;;;;;;;10.93;100;95341.57;;;;
2020/09/30 03:54:53;;;;;;;5.95;5.199999;;;;;;;10.93;100;95341.57;;;;
2020/09/30 03:55:54;;;;;;;5.95;5.199999;;;;;;;10.93;100;95341.57;;;;
2020/09/30 03:56:55;;;;;;;6.6;4.75;;;;;;;10.96;100;95333.09;;;;
2020/09/30 03:57:56;;;;;;;6.6;4.75;;;;;;;10.96;100;95333.09;;;;
2020/09/30 03:58:57;;;;;;;6.6;4.75;;;;;;;10.96;100;95333.09;;;;
2020/09/30 03:59:58;;;;;;;6.6;4.75;;;;;;;10.96;100;95333.09;;;;
2020/09/30 04:01:05;;;;;;;6.6;4.75;;;;;;;10.96;100;95333.09;;;;
2020/09/30 04:02:06;;;;;;;6.6;4.75;;;;;;;10.96;100;95333.09;;;;
2020/09/30 04:03:08;;;;;;;6.6;4.75;;;;;;;10.96;100;95333.09;;;;
2020/09/30 04:04:17;;;;;;;6.6;4.75;;;;;;;10.96;100;95333.09;;;;
2020/09/30 04:05:18;;;;;;;6.6;4.75;;;;;;;10.96;100;95333.09;;;;
2020/09/30 04:06:18;;;;;;;6.6;4.75;;;;;;;10.96;100;95333.09;;;;
2020/09/30 04:07:24;;;;;;;5.65;5.05;;;;;;;10.9;100;95319.06;;;;
2020/09/30 04:08:25;;;;;;;5.65;5.05;;;;;;;10.9;100;95319.06;;;;
2020/09/30 04:09:31;;;;;;;5.65;5.05;;;;;;;10.9;100;95319.06;;;;
2020/09/30 04:10:38;;;;;;;5.65;5.05;;;;;;;10.9;100;95319.06;;;;
2020/09/30 04:11:38;;;;;;;5.65;5.05;;;;;;;10.9;100;95319.06;;;;
2020/09/30 04:12:39;;;;;;;5.65;5.05;;;;;;;10.9;100;95319.06;;;;
2020/09/30 04:13:39;;;;;;;5.65;5.05;;;;;;;10.9;100;95319.06;;;;
2020/09/30 04:14:41;;;;;;;5.65;5.05;;;;;;;10.9;100;95319.06;;;;
2020/09/30 04:15:42;;;;;;;5.65;5.05;;;;;;;10.9;100;95319.06;;;;
2020/09/30 04:16:42;;;;;;;5.65;5.05;;;;;;;10.9;100;95319.06;;;;
2020/09/30 04:17:43;;;;;;;6.849999;5.25;;;;;;;10.83;100;95315.25;;;;
2020/09/30 04:18:43;;;;;;;6.849999;5.25;;;;;;;10.83;100;95315.25;;;;
2020/09/30 04:19:51;;;;;;;6.849999;5.25;;;;;;;10.83;100;95315.25;;;;
2020/09/30 04:20:52;;;;;;;6.849999;5.25;;;;;;;10.83;100;95315.25;;;;
2020/09/30 04:21:54;;;;;;;6.849999;5.25;;;;;;;10.83;100;95315.25;;;;
2020/09/30 04:22:55;;;;;;;6.849999;5.25;;;;;;;10.83;100;95315.25;;;;
2020/09/30 04:23:56;;;;;;;6.849999;5.25;;;;;;;10.83;100;95315.25;;;;
2020/09/30 04:24:57;;;;;;;6.849999;5.25;;;;;;;10.83;100;95315.25;;;;
2020/09/30 04:25:57;;;;;;;6.849999;5.25;;;;;;;10.83;100;95315.25;;;;
2020/09/30 04:26:58;;;;;;;6.849999;5.25;;;;;;;10.83;100;95315.25;;;;
2020/09/30 04:28:00;;;;;;;7.5;5.65;;;;;;;10.65;100;95327.15;;;;
2020/09/30 04:29:01;;;;;;;7.5;5.65;;;;;;;10.65;100;95327.15;;;;
2020/09/30 04:30:01;;;;;;;7.5;5.65;;;;;;;10.65;100;95327.15;;;;
2020/09/30 04:31:04;;;;;;;7.5;5.65;;;;;;;10.65;100;95327.15;;;;
2020/09/30 04:32:05;;;;;;;7.5;5.65;;;;;;;10.65;100;95327.15;;;;
2020/09/30 04:33:07;;;;;;;7.5;5.65;;;;;;;10.65;100;95327.15;;;;
2020/09/30 04:34:08;;;;;;;7.5;5.65;;;;;;;10.65;100;95327.15;;;;
2020/09/30 04:35:08;;;;;;;7.5;5.65;;;;;;;10.65;100;95327.15;;;;
2020/09/30 04:36:10;;;;;;;7.5;5.65;;;;;;;10.65;100;95327.15;;;;
2020/09/30 04:37:19;;;;;;;7.5;5.65;;;;;;;10.65;100;95327.15;;;;
2020/09/30 04:38:20;;;;;;;7.5;5.65;;;;;;;10.65;100;95327.15;;;;
2020/09/30 04:39:20;;;;;;;7;5.5;;;;;;;10.6;100;95317.97;;;;
2020/09/30 04:40:21;;;;;;;7;5.5;;;;;;;10.6;100;95317.97;;;;
2020/09/30 04:41:26;;;;;;;7;5.5;;;;;;;10.6;100;95317.97;;;;
2020/09/30 04:42:27;;;;;;;7;5.5;;;;;;;10.6;100;95317.97;;;;
2020/09/30 04:43:27;;;;;;;7;5.5;;;;;;;10.6;100;95317.97;;;;
2020/09/30 04:44:28;;;;;;;7;5.5;;;;;;;10.6;100;95317.97;;;;
2020/09/30 04:45:30;;;;;;;7;5.5;;;;;;;10.6;100;95317.97;;;;
2020/09/30 04:46:31;;;;;;;7;5.5;;;;;;;10.6;100;95317.97;;;;
2020/09/30 04:47:34;;;;;;;7;5.5;;;;;;;10.6;100;95317.97;;;;
2020/09/30 04:48:34;;;;;;;7;5.5;;;;;;;10.6;100;95317.97;;;;
2020/09/30 04:49:42;;;;;;;9.75;5.7;;;;;;;10.51;100;95319.8;;;;
2020/09/30 04:50:42;;;;;;;9.75;5.7;;;;;;;10.51;100;95319.8;;;;
2020/09/30 04:51:49;;;;;;;9.75;5.7;;;;;;;10.51;100;95319.8;;;;
2020/09/30 04:52:49;;;;;;;9.75;5.7;;;;;;;10.51;100;95319.8;;;;
2020/09/30 04:53:53;;;;;;;9.75;5.7;;;;;;;10.51;100;95319.8;;;;
2020/09/30 04:54:54;;;;;;;9.75;5.7;;;;;;;10.51;100;95319.8;;;;
2020/09/30 04:55:59;;;;;;;9.75;5.7;;;;;;;10.51;100;95319.8;;;;
2020/09/30 04:56:59;;;;;;;9.75;5.7;;;;;;;10.51;100;95319.8;;;;
2020/09/30 04:58:06;;;;;;;9.75;5.7;;;;;;;10.51;100;95319.8;;;;
2020/09/30 04:59:08;;;;;;;9.75;5.7;;;;;;;10.51;100;95319.8;;;;
2020/09/30 05:00:09;;;;;;;7.299999;5.5;;;;;;;10.52;100;95317.92;;;;
2020/09/30 05:01:10;;;;;;;7.299999;5.5;;;;;;;10.52;100;95317.92;;;;
2020/09/30 05:02:10;;;;;;;7.299999;5.5;;;;;;;10.52;100;95317.92;;;;
2020/09/30 05:03:11;;;;;;;7.299999;5.5;;;;;;;10.52;100;95317.92;;;;
2020/09/30 05:04:15;;;;;;;7.299999;5.5;;;;;;;10.52;100;95317.92;;;;
2020/09/30 05:05:17;;;;;;;7.299999;5.5;;;;;;;10.52;100;95317.92;;;;
2020/09/30 05:06:18;;;;;;;7.299999;5.5;;;;;;;10.52;100;95317.92;;;;
2020/09/30 05:07:28;;;;;;;7.299999;5.5;;;;;;;10.52;100;95317.92;;;;
2020/09/30 05:08:29;;;;;;;7.299999;5.5;;;;;;;10.52;100;95317.92;;;;
2020/09/30 05:09:29;;;;;;;7.299999;5.5;;;;;;;10.52;100;95317.92;;;;
2020/09/30 05:10:31;;;;;;;7.299999;5.5;;;;;;;10.52;100;95317.92;;;;
2020/09/30 05:11:32;;;;;;;7.250001;5.400001;;;;;;;10.47;100;95324.01;;;;
2020/09/30 05:12:33;;;;;;;7.250001;5.400001;;;;;;;10.47;100;95324.01;;;;
2020/09/30 05:13:34;;;;;;;7.250001;5.400001;;;;;;;10.47;100;95324.01;;;;
2020/09/30 05:14:34;;;;;;;7.250001;5.400001;;;;;;;10.47;100;95324.01;;;;
2020/09/30 05:15:39;;;;;;;7.250001;5.400001;;;;;;;10.47;100;95324.01;;;;
2020/09/30 05:16:45;;;;;;;7.250001;5.400001;;;;;;;10.47;100;95324.01;;;;
2020/09/30 05:17:46;;;;;;;7.250001;5.400001;;;;;;;10.47;100;95324.01;;;;
2020/09/30 05:18:48;;;;;;;7.250001;5.400001;;;;;;;10.47;100;95324.01;;;;
2020/09/30 05:19:49;;;;;;;7.250001;5.400001;;;;;;;10.47;100;95324.01;;;;
2020/09/30 05:20:51;;;;;;;7.250001;5.400001;;;;;;;10.47;100;95324.01;;;;
2020/09/30 05:21:51;;;;;;;8.550001;5.45;;;;;;;10.53;100;95321.32;;;;
2020/09/30 05:22:53;;;;;;;8.550001;5.45;;;;;;;10.53;100;95321.32;;;;
2020/09/30 05:23:54;;;;;;;8.550001;5.45;;;;;;;10.53;100;95321.32;;;;
2020/09/30 05:24:55;;;;;;;8.550001;5.45;;;;;;;10.53;100;95321.32;;;;
2020/09/30 05:25:55;;;;;;;8.550001;5.45;;;;;;;10.53;100;95321.32;;;;
2020/09/30 05:26:56;;;;;;;8.550001;5.45;;;;;;;10.53;100;95321.32;;;;
2020/09/30 05:27:57;;;;;;;8.550001;5.45;;;;;;;10.53;100;95321.32;;;;
2020/09/30 05:28:58;;;;;;;8.550001;5.45;;;;;;;10.53;100;95321.32;;;;
2020/09/30 05:34:08;;;;;;;6.8;5.85;;;;;;;10.55;100;95318.28;;;;
2020/09/30 05:35:09;;;;;;;6.8;5.85;;;;;;;10.55;100;95318.28;;;;
2020/09/30 05:36:10;;;;;;;6.8;5.85;;;;;;;10.55;100;95318.28;;;;
2020/09/30 05:37:12;;;;;;;6.8;5.85;;;;;;;10.55;100;95318.28;;;;
2020/09/30 05:38:14;;;;;;;6.8;5.85;;;;;;;10.55;100;95318.28;;;;
2020/09/30 05:39:17;;;;;;;6.8;5.85;;;;;;;10.55;100;95318.28;;;;
2020/09/30 05:40:18;;;;;;;6.8;5.85;;;;;;;10.55;100;95318.28;;;;
2020/09/30 05:41:21;;;;;;;6.8;5.85;;;;;;;10.55;100;95318.28;;;;
2020/09/30 05:42:21;;;;;;;6.8;5.85;;;;;;;10.55;100;95318.28;;;;
2020/09/30 05:43:29;;;;;;;6.95;5.9;;;;;;;10.64;100;95321.44;;;;
2020/09/30 05:44:31;;;;;;;6.95;5.9;;;;;;;10.64;100;95321.44;;;;
2020/09/30 05:45:32;;;;;;;6.95;5.9;;;;;;;10.64;100;95321.44;;;;
2020/09/30 05:46:32;;;;;;;6.95;5.9;;;;;;;10.64;100;95321.44;;;;
2020/09/30 05:47:36;;;;;;;6.95;5.9;;;;;;;10.64;100;95321.44;;;;
2020/09/30 05:48:37;;;;;;;6.95;5.9;;;;;;;10.64;100;95321.44;;;;
2020/09/30 05:49:49;;;;;;;6.95;5.9;;;;;;;10.64;100;95321.44;;;;
2020/09/30 05:51:04;;;;;;;6.95;5.9;;;;;;;10.64;100;95321.44;;;;
2020/09/30 05:52:04;;;;;;;6.95;5.9;;;;;;;10.64;100;95321.44;;;;
2020/09/30 05:53:11;;;;;;;6.95;5.9;;;;;;;10.64;100;95321.44;;;;
2020/09/30 05:54:22;;;;;;;8.75;5.65;;;;;;;10.66;100;95315.69;;;;
2020/09/30 05:55:22;;;;;;;8.75;5.65;;;;;;;10.66;100;95315.69;;;;
2020/09/30 05:56:35;;;;;;;8.75;5.65;;;;;;;10.66;100;95315.69;;;;
2020/09/30 05:57:35;;;;;;;8.75;5.65;;;;;;;10.66;100;95315.69;;;;
2020/09/30 05:58:45;;;;;;;8.75;5.65;;;;;;;10.66;100;95315.69;;;;
2020/09/30 05:59:45;;;;;;;8.75;5.65;;;;;;;10.66;100;95315.69;;;;
2020/09/30 06:00:55;;;;;;;8.75;5.65;;;;;;;10.66;100;95315.69;;;;
2020/09/30 06:02:07;;;;;;;8.75;5.65;;;;;;;10.66;100;95315.69;;;;
2020/09/30 06:03:09;;;;;;;8.75;5.65;;;;;;;10.66;100;95315.69;;;;
2020/09/30 06:04:09;;;;;;;6.950001;6.249999;;;;;;;10.8;100;95329.24;;;;
2020/09/30 06:05:12;;;;;;;6.950001;6.249999;;;;;;;10.8;100;95329.24;;;;
2020/09/30 06:06:13;;;;;;;6.950001;6.249999;;;;;;;10.8;100;95329.24;;;;
2020/09/30 06:07:15;;;;;;;6.950001;6.249999;;;;;;;10.8;100;95329.24;;;;
2020/09/30 06:08:15;;;;;;;6.950001;6.249999;;;;;;;10.8;100;95329.24;;;;
2020/09/30 06:09:16;;;;;;;6.950001;6.249999;;;;;;;10.8;100;95329.24;;;;
2020/09/30 06:10:20;;;;;;;6.950001;6.249999;;;;;;;10.8;100;95329.24;;;;
2020/09/30 06:11:22;;;;;;;6.950001;6.249999;;;;;;;10.8;100;95329.24;;;;